BAV1320 VVTS-VVDL
Flight info
| Callsign | BAV1320 |
|---|---|
| Flight time | 0h 26m |
| Altitude | 15000 |
| Route | KADUM KADUM1B |
| Aircraft | A321/M-SDE3FGHIRWY/LB1 |
Departure
| Time | 2026-04-29 21:56 |
|---|---|
| Airport | Tan Son Nhat International Airport (VVTS) |
Arrival
| Time | 2026-04-29 22:22 |
|---|---|
| Airport | Lien Khuong Airport (VVDL) |
| Time | Latitude | Longitude | Altitude | Speed | Heading |
|---|---|---|---|---|---|
| 2026-04-29 21:43 | 10.81541 | 106.65713 | 30 ft | 0 kts | 159° |
| 2026-04-29 21:51 | 10.81540 | 106.65713 | 30 ft | 0 kts | 159° |
| 2026-04-29 21:51 | 10.81488 | 106.65748 | 29 ft | 9 kts | 99° |
| 2026-04-29 21:52 | 10.81548 | 106.65793 | 29 ft | 13 kts | 6° |
| 2026-04-29 21:52 | 10.81648 | 106.65801 | 31 ft | 15 kts | 5° |
| 2026-04-29 21:52 | 10.81737 | 106.65776 | 31 ft | 11 kts | 19° |
| 2026-04-29 21:52 | 10.81778 | 106.65848 | 32 ft | 12 kts | 69° |
| 2026-04-29 21:53 | 10.81815 | 106.65945 | 33 ft | 18 kts | 69° |
| 2026-04-29 21:53 | 10.81871 | 106.66098 | 31 ft | 25 kts | 69° |
| 2026-04-29 21:53 | 10.81935 | 106.66269 | 25 ft | 26 kts | 68° |
| 2026-04-29 21:53 | 10.82001 | 106.66441 | 27 ft | 24 kts | 69° |
| 2026-04-29 21:54 | 10.82062 | 106.66603 | 25 ft | 24 kts | 69° |
| 2026-04-29 21:54 | 10.82119 | 106.66754 | 30 ft | 20 kts | 69° |
| 2026-04-29 21:54 | 10.82167 | 106.66881 | 33 ft | 18 kts | 69° |
| 2026-04-29 21:54 | 10.82213 | 106.66994 | 33 ft | 12 kts | 49° |
| 2026-04-29 21:55 | 10.82296 | 106.66992 | 33 ft | 13 kts | 338° |
| 2026-04-29 21:55 | 10.82346 | 106.66939 | 33 ft | 7 kts | 315° |
| 2026-04-29 21:55 | 10.82349 | 106.66890 | 34 ft | 9 kts | 249° |
| 2026-04-29 21:55 | 10.82257 | 106.66650 | 35 ft | 72 kts | 249° |
| 2026-04-29 21:56 | 10.81996 | 106.65953 | 33 ft | 137 kts | 248° |
| 2026-04-29 21:56 | 10.81587 | 106.64864 | 123 ft | 181 kts | 248° |
| 2026-04-29 21:56 | 10.81142 | 106.63661 | 675 ft | 186 kts | 248° |
| 2026-04-29 21:56 | 10.80693 | 106.62457 | 1375 ft | 185 kts | 248° |
| 2026-04-29 21:57 | 10.80423 | 106.61216 | 1987 ft | 179 kts | 278° |
| 2026-04-29 21:57 | 10.81038 | 106.60122 | 2202 ft | 189 kts | 324° |
| 2026-04-29 21:57 | 10.82309 | 106.59748 | 2393 ft | 198 kts | 9° |
| 2026-04-29 21:57 | 10.83512 | 106.60387 | 2630 ft | 205 kts | 43° |
| 2026-04-29 21:58 | 10.84617 | 106.61382 | 2924 ft | 217 kts | 43° |
| 2026-04-29 21:58 | 10.85766 | 106.62415 | 3237 ft | 229 kts | 43° |
| 2026-04-29 21:58 | 10.87009 | 106.63531 | 3513 ft | 246 kts | 43° |
| 2026-04-29 21:58 | 10.88306 | 106.64714 | 3903 ft | 259 kts | 43° |
| 2026-04-29 21:59 | 10.89685 | 106.65955 | 4400 ft | 268 kts | 42° |
| 2026-04-29 21:59 | 10.91099 | 106.67178 | 5032 ft | 272 kts | 41° |
| 2026-04-29 21:59 | 10.92555 | 106.68418 | 5741 ft | 273 kts | 40° |
| 2026-04-29 21:59 | 10.93997 | 106.69652 | 6452 ft | 274 kts | 40° |
| 2026-04-29 22:00 | 10.95463 | 106.70912 | 7152 ft | 277 kts | 40° |
| 2026-04-29 22:00 | 10.96917 | 106.72167 | 7823 ft | 279 kts | 41° |
| 2026-04-29 22:00 | 10.98404 | 106.73453 | 8510 ft | 281 kts | 41° |
| 2026-04-29 22:00 | 10.99878 | 106.74733 | 9167 ft | 283 kts | 41° |
| 2026-04-29 22:01 | 11.01389 | 106.76045 | 9818 ft | 286 kts | 41° |
| 2026-04-29 22:01 | 11.02895 | 106.77351 | 10404 ft | 291 kts | 41° |
| 2026-04-29 22:01 | 11.04466 | 106.78718 | 10705 ft | 306 kts | 41° |
| 2026-04-29 22:01 | 11.06134 | 106.80170 | 10981 ft | 322 kts | 41° |
| 2026-04-29 22:02 | 11.07848 | 106.81661 | 11362 ft | 332 kts | 41° |
| 2026-04-29 22:02 | 11.09443 | 106.83049 | 11889 ft | 335 kts | 41° |
| 2026-04-29 22:02 | 11.10763 | 106.84197 | 12345 ft | 337 kts | 41° |
| 2026-04-29 22:02 | 11.12546 | 106.85750 | 12928 ft | 340 kts | 41° |
| 2026-04-29 22:03 | 11.14354 | 106.87325 | 13486 ft | 344 kts | 41° |
| 2026-04-29 22:03 | 11.16185 | 106.88919 | 14051 ft | 347 kts | 41° |
| 2026-04-29 22:03 | 11.18004 | 106.90505 | 14577 ft | 350 kts | 41° |
| 2026-04-29 22:03 | 11.19872 | 106.92132 | 14859 ft | 353 kts | 41° |
| 2026-04-29 22:04 | 11.21725 | 106.93746 | 14881 ft | 352 kts | 41° |
| 2026-04-29 22:04 | 11.33190 | 107.03735 | 14885 ft | 352 kts | 41° |
| 2026-04-29 22:04 | 11.34888 | 107.05533 | 14879 ft | 351 kts | 54° |
| 2026-04-29 22:04 | 11.36034 | 107.07613 | 14883 ft | 350 kts | 69° |
| 2026-04-29 22:05 | 11.36743 | 107.10065 | 14889 ft | 350 kts | 77° |
| 2026-04-29 22:05 | 11.37289 | 107.12477 | 14911 ft | 346 kts | 78° |
| 2026-04-29 22:05 | 11.38349 | 107.17233 | 14955 ft | 344 kts | 77° |
| 2026-04-29 22:06 | 11.38881 | 107.19598 | 14971 ft | 344 kts | 77° |
| 2026-04-29 22:06 | 11.39423 | 107.21990 | 14983 ft | 344 kts | 77° |
| 2026-04-29 22:06 | 11.39958 | 107.24339 | 14990 ft | 344 kts | 77° |
| 2026-04-29 22:06 | 11.40504 | 107.26730 | 14996 ft | 344 kts | 77° |
| 2026-04-29 22:07 | 11.41043 | 107.29082 | 14999 ft | 344 kts | 77° |
| 2026-04-29 22:07 | 11.41590 | 107.31471 | 15001 ft | 344 kts | 77° |
| 2026-04-29 22:07 | 11.42131 | 107.33836 | 15002 ft | 344 kts | 77° |
| 2026-04-29 22:07 | 11.42678 | 107.36222 | 15002 ft | 344 kts | 77° |
| 2026-04-29 22:08 | 11.43224 | 107.38610 | 15002 ft | 344 kts | 77° |
| 2026-04-29 22:08 | 11.43764 | 107.40968 | 15002 ft | 345 kts | 77° |
| 2026-04-29 22:08 | 11.44317 | 107.43384 | 14990 ft | 349 kts | 77° |
| 2026-04-29 22:08 | 11.44862 | 107.45768 | 14971 ft | 350 kts | 77° |
| 2026-04-29 22:09 | 11.45420 | 107.48205 | 14954 ft | 351 kts | 77° |
| 2026-04-29 22:09 | 11.45977 | 107.50640 | 14941 ft | 351 kts | 77° |
| 2026-04-29 22:09 | 11.46524 | 107.53033 | 14933 ft | 351 kts | 77° |
| 2026-04-29 22:09 | 11.47083 | 107.55481 | 14929 ft | 351 kts | 77° |
| 2026-04-29 22:10 | 11.47631 | 107.57880 | 14927 ft | 351 kts | 77° |
| 2026-04-29 22:10 | 11.48188 | 107.60321 | 14926 ft | 351 kts | 77° |
| 2026-04-29 22:10 | 11.48736 | 107.62723 | 14926 ft | 351 kts | 77° |
| 2026-04-29 22:10 | 11.49291 | 107.65158 | 14927 ft | 351 kts | 77° |
| 2026-04-29 22:11 | 11.49838 | 107.67560 | 14926 ft | 351 kts | 77° |
| 2026-04-29 22:11 | 11.50395 | 107.70002 | 14678 ft | 351 kts | 77° |
| 2026-04-29 22:11 | 11.50931 | 107.72355 | 14399 ft | 347 kts | 77° |
| 2026-04-29 22:11 | 11.51487 | 107.74799 | 14127 ft | 346 kts | 77° |
| 2026-04-29 22:12 | 11.52029 | 107.77176 | 13774 ft | 345 kts | 77° |
| 2026-04-29 22:12 | 11.52562 | 107.79520 | 13380 ft | 342 kts | 77° |
| 2026-04-29 22:12 | 11.53101 | 107.81888 | 12965 ft | 340 kts | 77° |
| 2026-04-29 22:12 | 11.53628 | 107.84210 | 12545 ft | 337 kts | 77° |
| 2026-04-29 22:13 | 11.54159 | 107.86543 | 12119 ft | 335 kts | 77° |
| 2026-04-29 22:13 | 11.54676 | 107.88821 | 11701 ft | 332 kts | 77° |
| 2026-04-29 22:13 | 11.55198 | 107.91116 | 11273 ft | 329 kts | 77° |
| 2026-04-29 22:13 | 11.55708 | 107.93360 | 10851 ft | 327 kts | 77° |
| 2026-04-29 22:14 | 11.56222 | 107.95619 | 10461 ft | 322 kts | 77° |
| 2026-04-29 22:14 | 11.56715 | 107.97783 | 10323 ft | 309 kts | 77° |
| 2026-04-29 22:14 | 11.57193 | 107.99886 | 10186 ft | 296 kts | 76° |
| 2026-04-29 22:14 | 11.57645 | 108.01874 | 10053 ft | 284 kts | 76° |
| 2026-04-29 22:15 | 11.58088 | 108.03825 | 9780 ft | 279 kts | 76° |
| 2026-04-29 22:15 | 11.58528 | 108.05760 | 9398 ft | 278 kts | 76° |
| 2026-04-29 22:15 | 11.58958 | 108.07655 | 9041 ft | 276 kts | 76° |
| 2026-04-29 22:15 | 11.59392 | 108.09564 | 8686 ft | 274 kts | 76° |
| 2026-04-29 22:16 | 11.59816 | 108.11430 | 8343 ft | 272 kts | 76° |
| 2026-04-29 22:16 | 11.60420 | 108.13248 | 7996 ft | 267 kts | 57° |
| 2026-04-29 22:16 | 11.61684 | 108.14540 | 7795 ft | 258 kts | 31° |
| 2026-04-29 22:16 | 11.63266 | 108.15357 | 7575 ft | 250 kts | 25° |
| 2026-04-29 22:17 | 11.64820 | 108.16073 | 7323 ft | 245 kts | 21° |
| 2026-04-29 22:17 | 11.66463 | 108.16484 | 7060 ft | 241 kts | 6° |
| 2026-04-29 22:17 | 11.68118 | 108.16490 | 6745 ft | 240 kts | 358° |
| 2026-04-29 22:17 | 11.69789 | 108.16384 | 6429 ft | 239 kts | 357° |
| 2026-04-29 22:18 | 11.71426 | 108.16271 | 6158 ft | 235 kts | 357° |
| 2026-04-29 22:18 | 11.73018 | 108.16373 | 6056 ft | 228 kts | 20° |
| 2026-04-29 22:18 | 11.74291 | 108.17258 | 6009 ft | 226 kts | 53° |
| 2026-04-29 22:18 | 11.74897 | 108.18733 | 6007 ft | 227 kts | 85° |
| 2026-04-29 22:19 | 11.74821 | 108.20335 | 5855 ft | 229 kts | 96° |
| 2026-04-29 22:19 | 11.74682 | 108.21949 | 5584 ft | 221 kts | 92° |
| 2026-04-29 22:19 | 11.74665 | 108.23442 | 5369 ft | 204 kts | 88° |
| 2026-04-29 22:19 | 11.74722 | 108.24857 | 5060 ft | 192 kts | 86° |
| 2026-04-29 22:20 | 11.74797 | 108.26161 | 4815 ft | 177 kts | 86° |
| 2026-04-29 22:20 | 11.74864 | 108.27357 | 4550 ft | 159 kts | 86° |
| 2026-04-29 22:20 | 11.74920 | 108.28455 | 4334 ft | 155 kts | 86° |
| 2026-04-29 22:20 | 11.74976 | 108.29558 | 4138 ft | 154 kts | 87° |
| 2026-04-29 22:21 | 11.75030 | 108.30639 | 3948 ft | 153 kts | 87° |
| 2026-04-29 22:21 | 11.75084 | 108.31734 | 3746 ft | 153 kts | 87° |
| 2026-04-29 22:21 | 11.75140 | 108.32809 | 3551 ft | 153 kts | 87° |
| 2026-04-29 22:21 | 11.75197 | 108.33897 | 3336 ft | 152 kts | 88° |
| 2026-04-29 22:22 | 11.75244 | 108.34965 | 3175 ft | 150 kts | 87° |
| 2026-04-29 22:22 | 11.75292 | 108.35874 | 3161 ft | 93 kts | 88° |
| 2026-04-29 22:22 | 11.75316 | 108.36333 | 3161 ft | 55 kts | 86° |
| 2026-04-29 22:22 | 11.75333 | 108.36676 | 3161 ft | 28 kts | 87° |
| 2026-04-29 22:23 | 11.75312 | 108.36790 | 3161 ft | 12 kts | 152° |
| 2026-04-29 22:23 | 11.75224 | 108.36801 | 3161 ft | 12 kts | 177° |
| 2026-04-29 22:23 | 11.75136 | 108.36805 | 3161 ft | 12 kts | 177° |
| 2026-04-29 22:23 | 11.75064 | 108.36824 | 3161 ft | 10 kts | 156° |
| 2026-04-29 22:24 | 11.75002 | 108.36834 | 3161 ft | 2 kts | 175° |
| 2026-04-29 22:24 | 11.74998 | 108.36834 | 3161 ft | 0 kts | 175° |